Time;durP1;ratioP1;P1;durP2;ratioP2;P2;SDS_P1;SDS_P2;PMS_P1;PMS_P2;Temp;Humidity;BMP_temperature;BMP_pressure;BME280_temperature;BME280_humidity;BME280_pressure;Samples;Min_cycle;Max_cycle;Signal;HPM_P1;HPM_P2
2021/08/06 00:01:49;;;;;;;;;;;;;;;;;;5027855;28;19925;-66
2021/08/06 00:04:16;;;;;;;;;;;;;;;;;;5026631;28;19929;-65
2021/08/06 00:06:43;;;;;;;;;;;;;;;;;;5024126;28;19932;-65
2021/08/06 00:09:10;;;;;;;;;;;;;;;;;;5017335;28;19929;-66
2021/08/06 00:11:37;;;;;;;;;;;;;;;;;;5031261;28;20016;-65
2021/08/06 00:14:04;;;;;;;;;;;;;;;;;;5028548;28;20297;-67
2021/08/06 00:16:31;;;;;;;;;;;;;;;;;;5031578;28;19925;-65
2021/08/06 00:18:58;;;;;;;;;;;;;;;;;;5026549;28;19944;-66
2021/08/06 00:21:25;;;;;;;;;;;;;;;;;;5027338;28;20389;-66
2021/08/06 00:23:51;;;;;;;;;;;;;;;;;;5033192;28;19925;-66
2021/08/06 00:26:18;;;;;;;;;;;;;;;;;;5030157;28;19925;-65
2021/08/06 00:28:45;;;;;;;;;;;;;;;;;;5029730;28;19925;-65
2021/08/06 00:31:12;;;;;;;;;;;;;;;;;;5031757;28;20286;-66
2021/08/06 00:33:39;;;;;;;;;;;;;;;;;;5020153;28;19925;-66
2021/08/06 00:36:06;;;;;;;;;;;;;;;;;;5028729;28;19940;-66
2021/08/06 00:38:33;;;;;;;;;;;;;;;;;;5027764;28;19934;-66
2021/08/06 00:41:00;;;;;;;;;;;;;;;;;;5030072;28;19961;-66
2021/08/06 00:43:27;;;;;;;;;;;;;;;;;;5031034;28;20018;-66
2021/08/06 00:45:54;;;;;;;;;;;;;;;;;;5032032;28;19931;-66
2021/08/06 00:48:21;;;;;;;;;;;;;;;;;;5016535;28;19925;-65
2021/08/06 00:50:48;;;;;;;;;;;;;;;;;;5020836;28;20404;-65
2021/08/06 00:53:15;;;;;;;;;;;;;;;;;;5027796;28;19925;-66
2021/08/06 00:55:43;;;;;;;;;;;;;;;;;;5030805;28;19929;-66
2021/08/06 00:58:10;;;;;;;;;;;;;;;;;;5031307;28;19925;-67
2021/08/06 01:00:37;;;;;;;;;;;;;;;;;;5024123;28;19925;-65
2021/08/06 01:03:03;;;;;;;;;;;;;;;;;;5028971;28;19925;-66
2021/08/06 01:05:30;;;;;;;;;;;;;;;;;;5029070;28;19925;-66
2021/08/06 01:07:57;;;;;;;;;;;;;;;;;;5029807;28;19931;-66
2021/08/06 01:10:24;;;;;;;;;;;;;;;;;;5021882;28;19925;-66
2021/08/06 01:12:51;;;;;;;;;;;;;;;;;;5025848;28;19925;-66
2021/08/06 01:15:18;;;;;;;;;;;;;;;;;;5028642;28;19955;-66
2021/08/06 01:17:45;;;;;;;;;;;;;;;;;;5028068;28;19925;-66
2021/08/06 01:20:12;;;;;;;;;;;;;;;;;;5029336;28;19929;-66
2021/08/06 01:22:40;;;;;;;;;;;;;;;;;;5032637;28;19925;-67
2021/08/06 01:25:06;;;;;;;;;;;;;;;;;;5025501;28;19932;-66
2021/08/06 01:27:33;;;;;;;;;;;;;;;;;;5026737;28;20407;-66
2021/08/06 01:30:00;;;;;;;;;;;;;;;;;;5020628;28;19932;-65
2021/08/06 01:32:27;;;;;;;;;;;;;;;;;;5019673;28;19936;-66
2021/08/06 01:34:54;;;;;;;;;;;;;;;;;;5027819;28;19929;-67
2021/08/06 01:37:21;;;;;;;;;;;;;;;;;;5019983;28;20176;-65
2021/08/06 01:39:48;;;;;;;;;;;;;;;;;;5022608;28;19925;-66
2021/08/06 01:42:15;;;;;;;;;;;;;;;;;;5030753;28;19925;-66
2021/08/06 01:44:42;;;;;;;;;;;;;;;;;;5031664;28;19936;-67
2021/08/06 01:47:09;;;;;;;;;;;;;;;;;;5030235;28;20312;-66
2021/08/06 01:49:36;;;;;;;;;;;;;;;;;;5017386;28;20008;-67
2021/08/06 01:52:03;;;;;;;;;;;;;;;;;;5024541;28;19933;-66
2021/08/06 01:54:30;;;;;;;;;;;;;;;;;;5029602;28;19929;-66
2021/08/06 01:56:57;;;;;;;;;;;;;;;;;;5017838;28;19931;-65
2021/08/06 01:59:24;;;;;;;;;;;;;;;;;;5026530;28;19940;-66
2021/08/06 02:01:50;;;;;;;;;;;;;;;;;;5027817;28;19925;-67
2021/08/06 02:04:17;;;;;;;;;;;;;;;;;;5029440;28;19955;-66
2021/08/06 02:06:44;;;;;;;;;;;;;;;;;;5028464;28;20313;-67
2021/08/06 02:09:11;;;;;;;;;;;;;;;;;;5030501;28;19925;-67
2021/08/06 02:11:38;;;;;;;;;;;;;;;;;;5029637;28;19926;-65
2021/08/06 02:14:06;;;;;;;;;;;;;;;;;;5015532;28;19930;-66
2021/08/06 02:16:33;;;;;;;;;;;;;;;;;;5020535;28;19928;-66
2021/08/06 02:19:00;;;;;;;;;;;;;;;;;;5028093;28;19936;-67
2021/08/06 02:21:27;;;;;;;;;;;;;;;;;;5019514;28;19931;-66
2021/08/06 02:23:54;;;;;;;;;;;;;;;;;;5031112;28;20297;-66
2021/08/06 02:26:21;;;;;;;;;;;;;;;;;;5026128;28;19925;-66
2021/08/06 02:28:50;;;;;;;;;;;;;;;;;;5027350;28;20114;-66
2021/08/06 02:31:17;;;;;;;;;;;;;;;;;;5021260;28;20478;-67
2021/08/06 02:33:44;;;;;;;;;;;;;;;;;;5027886;28;20397;-67
2021/08/06 02:36:11;;;;;;;;;;;;;;;;;;5021903;28;20521;-65
2021/08/06 02:38:39;;;;;;;;;;;;;;;;;;5029575;28;19933;-66
2021/08/06 02:41:05;;;;;;;;;;;;;;;;;;5020994;28;20285;-66
2021/08/06 02:43:32;;;;;;;;;;;;;;;;;;5023920;28;20455;-65
2021/08/06 02:45:59;;;;;;;;;;;;;;;;;;5013155;28;19925;-67
2021/08/06 02:48:26;;;;;;;;;;;;;;;;;;5029856;28;19925;-66
2021/08/06 02:50:53;;;;;;;;;;;;;;;;;;5026539;28;19929;-70
2021/08/06 02:53:20;;;;;;;;;;;;;;;;;;5023445;28;19925;-66
2021/08/06 02:55:47;;;;;;;;;;;;;;;;;;5016143;28;19936;-66
2021/08/06 02:58:14;;;;;;;;;;;;;;;;;;5028287;28;20390;-67
2021/08/06 03:00:42;;;;;;;;;;;;;;;;;;5026937;28;19925;-66
2021/08/06 03:03:09;;;;;;;;;;;;;;;;;;5023415;28;20313;-66
2021/08/06 03:05:36;;;;;;;;;;;;;;;;;;5028943;28;19932;-66
2021/08/06 03:08:03;;;;;;;;;;;;;;;;;;5025858;28;20408;-66
2021/08/06 03:10:30;;;;;;;;;;;;;;;;;;5027049;28;19925;-67
2021/08/06 03:12:57;;;;;;;;;;;;;;;;;;5029992;28;19931;-66
2021/08/06 03:15:24;;;;;;;;;;;;;;;;;;5028436;28;19936;-67
2021/08/06 03:17:51;;;;;;;;;;;;;;;;;;5018205;28;19925;-66
2021/08/06 03:20:19;;;;;;;;;;;;;;;;;;5029913;28;20015;-66
2021/08/06 03:22:46;;;;;;;;;;;;;;;;;;5031076;28;20038;-66
2021/08/06 03:25:12;;;;;;;;;;;;;;;;;;5023689;28;19929;-66
2021/08/06 03:27:39;;;;;;;;;;;;;;;;;;5024963;28;19976;-66
2021/08/06 03:30:06;;;;;;;;;;;;;;;;;;5020909;28;19933;-67
2021/08/06 03:32:36;;;;;;;;;;;;;;;;;;5026500;28;19929;-69
2021/08/06 03:35:03;;;;;;;;;;;;;;;;;;5029217;28;19929;-66
2021/08/06 03:37:30;;;;;;;;;;;;;;;;;;5026479;28;19926;-66
2021/08/06 03:42:26;;;;;;;;;;;;;;;;;;5022343;28;19933;-65
2021/08/06 03:44:53;;;;;;;;;;;;;;;;;;5027365;28;19932;-65
2021/08/06 03:47:20;;;;;;;;;;;;;;;;;;5020494;28;19925;-64
2021/08/06 03:49:47;;;;;;;;;;;;;;;;;;5027468;28;20286;-64
2021/08/06 03:52:14;;;;;;;;;;;;;;;;;;5028966;28;19926;-64
2021/08/06 03:54:41;;;;;;;;;;;;;;;;;;5019865;28;19932;-64
2021/08/06 03:57:08;;;;;;;;;;;;;;;;;;5026969;28;19925;-65
2021/08/06 03:59:34;;;;;;;;;;;;;;;;;;5030406;28;19929;-65
2021/08/06 04:02:01;;;;;;;;;;;;;;;;;;5030627;28;20034;-66
2021/08/06 04:04:28;;;;;;;;;;;;;;;;;;5027317;28;20377;-65
2021/08/06 04:06:55;;;;;;;;;;;;;;;;;;5025596;28;20020;-65
2021/08/06 04:09:22;;;;;;;;;;;;;;;;;;5024234;28;19925;-65
2021/08/06 04:11:49;;;;;;;;;;;;;;;;;;5030984;28;19926;-65
2021/08/06 04:14:16;;;;;;;;;;;;;;;;;;5026520;28;19926;-65
2021/08/06 04:16:43;;;;;;;;;;;;;;;;;;5025947;28;20024;-66
2021/08/06 04:19:10;;;;;;;;;;;;;;;;;;5025773;28;20669;-66
2021/08/06 04:21:37;;;;;;;;;;;;;;;;;;5031297;28;19931;-66
2021/08/06 04:24:04;;;;;;;;;;;;;;;;;;5024372;28;19926;-66
2021/08/06 04:26:35;;;;;;;;;;;;;;;;;;5028797;28;20344;-65
2021/08/06 04:29:02;;;;;;;;;;;;;;;;;;5030338;28;19925;-65
2021/08/06 04:31:29;;;;;;;;;;;;;;;;;;5030794;28;19932;-65
2021/08/06 04:33:56;;;;;;;;;;;;;;;;;;5026575;28;19925;-65
2021/08/06 04:36:23;;;;;;;;;;;;;;;;;;5029421;28;19932;-65
2021/08/06 04:38:50;;;;;;;;;;;;;;;;;;5023974;28;19925;-65
2021/08/06 04:41:17;;;;;;;;;;;;;;;;;;5029340;28;20403;-65
2021/08/06 04:43:44;;;;;;;;;;;;;;;;;;5026454;28;20393;-65
2021/08/06 04:46:11;;;;;;;;;;;;;;;;;;5026460;28;20423;-65
2021/08/06 04:48:38;;;;;;;;;;;;;;;;;;5032832;28;19925;-65
2021/08/06 04:51:05;;;;;;;;;;;;;;;;;;5024799;28;19932;-65
2021/08/06 04:53:34;;;;;;;;;;;;;;;;;;5028426;28;19932;-65
2021/08/06 04:56:01;;;;;;;;;;;;;;;;;;5030179;28;19941;-65
2021/08/06 04:58:28;;;;;;;;;;;;;;;;;;5026898;28;20377;-65
2021/08/06 05:00:55;;;;;;;;;;;;;;;;;;5022838;28;19948;-65
2021/08/06 05:03:22;;;;;;;;;;;;;;;;;;5027705;28;19929;-65
2021/08/06 05:05:49;;;;;;;;;;;;;;;;;;5026603;28;19929;-66
2021/08/06 05:08:16;;;;;;;;;;;;;;;;;;5024150;28;19925;-66
2021/08/06 05:10:43;;;;;;;;;;;;;;;;;;5023196;28;20128;-66
2021/08/06 05:13:10;;;;;;;;;;;;;;;;;;5026071;28;20352;-66
2021/08/06 05:15:37;;;;;;;;;;;;;;;;;;5022618;28;19936;-67
2021/08/06 05:18:04;;;;;;;;;;;;;;;;;;5028625;28;19929;-65
2021/08/06 05:20:32;;;;;;;;;;;;;;;;;;5022289;28;19935;-65
2021/08/06 05:22:59;;;;;;;;;;;;;;;;;;5026619;28;19983;-65
2021/08/06 05:25:26;;;;;;;;;;;;;;;;;;5029577;28;19932;-66
2021/08/06 05:27:53;;;;;;;;;;;;;;;;;;5029519;28;20277;-66
2021/08/06 05:30:22;;;;;;;;;;;;;;;;;;5028453;28;19925;-66
2021/08/06 05:32:49;;;;;;;;;;;;;;;;;;5027781;28;19933;-65
2021/08/06 05:35:16;;;;;;;;;;;;;;;;;;5030701;28;19932;-65
2021/08/06 05:37:43;;;;;;;;;;;;;;;;;;5029525;28;19925;-67
2021/08/06 05:40:10;;;;;;;;;;;;;;;;;;5027536;28;19948;-66
2021/08/06 05:42:37;;;;;;;;;;;;;;;;;;5024756;28;19931;-66
2021/08/06 05:45:04;;;;;;;;;;;;;;;;;;5026723;28;19925;-65
2021/08/06 05:47:31;;;;;;;;;;;;;;;;;;5033290;28;19925;-66
2021/08/06 05:49:58;;;;;;;;;;;;;;;;;;5023893;28;19926;-66
2021/08/06 05:52:25;;;;;;;;;;;;;;;;;;5023808;28;19932;-67
2021/08/06 05:54:52;;;;;;;;;;;;;;;;;;5028229;28;19933;-67
2021/08/06 05:57:19;;;;;;;;;;;;;;;;;;5027325;28;19936;-66
2021/08/06 05:59:46;;;;;;;;;;;;;;;;;;5022847;28;19925;-67
2021/08/06 06:02:13;;;;;;;;;;;;;;;;;;5023263;28;19925;-67
2021/08/06 06:04:40;;;;;;;;;;;;;;;;;;5020656;28;19932;-65
2021/08/06 06:07:07;;;;;;;;;;;;;;;;;;5022240;28;20297;-65
2021/08/06 06:09:33;;;;;;;;;;;;;;;;;;5021037;28;19932;-66
2021/08/06 06:12:00;;;;;;;;;;;;;;;;;;5027994;28;19925;-65
2021/08/06 06:14:27;;;;;;;;;;;;;;;;;;5028375;28;20300;-65
2021/08/06 06:16:54;;;;;;;;;;;;;;;;;;5024132;28;20410;-65
2021/08/06 06:19:21;;;;;;;;;;;;;;;;;;5026161;28;19932;-65
2021/08/06 06:21:48;;;;;;;;;;;;;;;;;;5024588;28;19933;-65
2021/08/06 06:24:15;;;;;;;;;;;;;;;;;;5027940;28;20381;-65
2021/08/06 06:26:42;;;;;;;;;;;;;;;;;;5028881;28;19929;-65
2021/08/06 06:29:09;;;;;;;;;;;;;;;;;;5025664;28;20305;-65
2021/08/06 06:31:36;;;;;;;;;;;;;;;;;;5025673;28;19948;-65
2021/08/06 06:34:03;;;;;;;;;;;;;;;;;;5023277;28;19926;-65
2021/08/06 06:36:30;;;;;;;;;;;;;;;;;;5026308;28;19947;-65
2021/08/06 06:38:57;;;;;;;;;;;;;;;;;;5021462;28;20358;-65
2021/08/06 06:41:24;;;;;;;;;;;;;;;;;;5020250;28;19947;-66
2021/08/06 06:43:50;;;;;;;;;;;;;;;;;;5029645;28;19932;-66
2021/08/06 06:46:17;;;;;;;;;;;;;;;;;;5022262;28;19936;-65
2021/08/06 06:48:44;;;;;;;;;;;;;;;;;;5021158;28;19933;-66
2021/08/06 06:51:11;;;;;;;;;;;;;;;;;;5027164;28;19936;-65
2021/08/06 06:53:38;;;;;;;;;;;;;;;;;;5027847;28;20385;-65
2021/08/06 06:56:05;;;;;;;;;;;;;;;;;;5026623;28;20289;-65
2021/08/06 06:58:32;;;;;;;;;;;;;;;;;;5026942;28;19937;-65
2021/08/06 07:00:59;;;;;;;;;;;;;;;;;;5028022;28;19932;-66
2021/08/06 07:03:26;;;;;;;;;;;;;;;;;;5026990;28;19924;-66
2021/08/06 07:05:53;;;;;;;;;;;;;;;;;;5020432;28;20404;-67
2021/08/06 07:08:20;;;;;;;;;;;;;;;;;;5025200;28;20300;-66
2021/08/06 07:10:47;;;;;;;;;;;;;;;;;;5023870;28;19926;-66
2021/08/06 07:13:14;;;;;;;;;;;;;;;;;;5027833;28;19931;-64
2021/08/06 07:15:41;;;;;;;;;;;;;;;;;;5026258;28;19925;-66
2021/08/06 07:18:08;;;;;;;;;;;;;;;;;;5028464;28;20293;-66
2021/08/06 07:20:34;;;;;;;;;;;;;;;;;;5028534;28;19933;-66
2021/08/06 07:23:01;;;;;;;;;;;;;;;;;;5030643;28;19933;-65
2021/08/06 07:25:28;;;;;;;;;;;;;;;;;;5031819;28;19932;-65
2021/08/06 07:27:55;;;;;;;;;;;;;;;;;;5026361;28;19925;-67
2021/08/06 07:30:22;;;;;;;;;;;;;;;;;;5031318;28;19929;-67
2021/08/06 07:32:49;;;;;;;;;;;;;;;;;;5033609;28;19972;-66
2021/08/06 07:35:18;;;;;;;;;;;;;;;;;;5030010;28;19951;-66
2021/08/06 07:37:45;;;;;;;;;;;;;;;;;;5030769;28;19933;-66
2021/08/06 07:40:12;;;;;;;;;;;;;;;;;;5031526;28;19969;-66
2021/08/06 07:42:39;;;;;;;;;;;;;;;;;;5031926;28;19925;-65
2021/08/06 07:45:06;;;;;;;;;;;;;;;;;;5031587;28;19925;-67
2021/08/06 07:47:33;;;;;;;;;;;;;;;;;;5030000;28;20410;-67
2021/08/06 07:50:00;;;;;;;;;;;;;;;;;;5031103;28;20007;-68
2021/08/06 07:52:27;;;;;;;;;;;;;;;;;;5032404;28;19925;-66
2021/08/06 07:54:54;;;;;;;;;;;;;;;;;;5032353;28;20017;-66
2021/08/06 07:57:21;;;;;;;;;;;;;;;;;;5031263;28;20381;-65
2021/08/06 07:59:48;;;;;;;;;;;;;;;;;;5030878;28;20201;-66
2021/08/06 08:02:14;;;;;;;;;;;;;;;;;;5029766;28;19929;-66
2021/08/06 08:04:41;;;;;;;;;;;;;;;;;;5033053;28;19929;-65
2021/08/06 08:07:08;;;;;;;;;;;;;;;;;;5025043;28;19930;-67
2021/08/06 08:09:35;;;;;;;;;;;;;;;;;;5038773;28;20019;-65
2021/08/06 08:12:02;;;;;;;;;;;;;;;;;;5030422;28;20376;-66
2021/08/06 08:14:29;;;;;;;;;;;;;;;;;;5029181;28;19931;-65
2021/08/06 08:16:56;;;;;;;;;;;;;;;;;;5033173;28;19925;-67
2021/08/06 08:19:23;;;;;;;;;;;;;;;;;;5032775;28;20055;-67
2021/08/06 08:21:50;;;;;;;;;;;;;;;;;;5032133;28;20455;-63
2021/08/06 08:24:17;;;;;;;;;;;;;;;;;;5034543;28;20012;-64
2021/08/06 08:26:44;;;;;;;;;;;;;;;;;;5032262;28;20289;-66
2021/08/06 08:29:11;;;;;;;;;;;;;;;;;;5035434;28;19936;-66
2021/08/06 08:31:38;;;;;;;;;;;;;;;;;;5030187;28;20016;-66
2021/08/06 08:34:05;;;;;;;;;;;;;;;;;;5030136;28;19963;-66
2021/08/06 08:36:32;;;;;;;;;;;;;;;;;;5027874;28;19929;-65
2021/08/06 08:38:59;;;;;;;;;;;;;;;;;;5026483;28;20377;-69
2021/08/06 08:41:26;;;;;;;;;;;;;;;;;;5029247;28;19956;-65
2021/08/06 08:43:53;;;;;;;;;;;;;;;;;;5023558;28;19933;-65
2021/08/06 08:46:20;;;;;;;;;;;;;;;;;;5027318;28;19925;-66
2021/08/06 08:48:47;;;;;;;;;;;;;;;;;;5028998;28;20108;-65
2021/08/06 08:51:14;;;;;;;;;;;;;;;;;;5024819;28;19929;-65
2021/08/06 08:53:41;;;;;;;;;;;;;;;;;;5031863;28;20378;-66
2021/08/06 08:56:08;;;;;;;;;;;;;;;;;;5029245;28;20236;-66
2021/08/06 08:58:36;;;;;;;;;;;;;;;;;;5028198;28;19932;-65
2021/08/06 09:01:02;;;;;;;;;;;;;;;;;;5029186;28;19933;-65
2021/08/06 09:03:29;;;;;;;;;;;;;;;;;;5026808;28;19956;-65
2021/08/06 09:05:56;;;;;;;;;;;;;;;;;;5030165;28;19931;-66
2021/08/06 09:08:23;;;;;;;;;;;;;;;;;;5023838;28;19933;-65
2021/08/06 09:10:50;;;;;;;;;;;;;;;;;;5037543;28;19925;-65
2021/08/06 09:13:17;;;;;;;;;;;;;;;;;;5029034;28;20444;-65
2021/08/06 09:15:44;;;;;;;;;;;;;;;;;;5030212;28;19932;-65
2021/08/06 09:18:11;;;;;;;;;;;;;;;;;;5031199;28;19925;-66
2021/08/06 09:20:38;;;;;;;;;;;;;;;;;;5027432;28;20021;-65
2021/08/06 09:23:05;;;;;;;;;;;;;;;;;;5030957;28;19932;-64
2021/08/06 09:25:32;;;;;;;;;;;;;;;;;;5027705;28;19935;-65
2021/08/06 09:27:59;;;;;;;;;;;;;;;;;;5024721;28;19933;-64
2021/08/06 09:30:26;;;;;;;;;;;;;;;;;;5023609;28;19925;-64
2021/08/06 09:32:53;;;;;;;;;;;;;;;;;;5026154;28;19929;-64
2021/08/06 09:35:20;;;;;;;;;;;;;;;;;;5025585;28;20468;-64
2021/08/06 09:37:47;;;;;;;;;;;;;;;;;;5021966;28;19925;-64
2021/08/06 09:40:14;;;;;;;;;;;;;;;;;;5026913;28;20024;-64
2021/08/06 09:42:41;;;;;;;;;;;;;;;;;;5022931;28;20139;-63
2021/08/06 09:45:08;;;;;;;;;;;;;;;;;;5025702;28;19925;-64
2021/08/06 09:47:34;;;;;;;;;;;;;;;;;;5024594;28;19925;-64
2021/08/06 09:50:02;;;;;;;;;;;;;;;;;;5025273;28;19932;-63
2021/08/06 09:52:29;;;;;;;;;;;;;;;;;;5025510;28;20388;-63
2021/08/06 09:54:56;;;;;;;;;;;;;;;;;;5027924;28;19925;-65
2021/08/06 09:57:23;;;;;;;;;;;;;;;;;;5027003;28;20393;-64
2021/08/06 09:59:50;;;;;;;;;;;;;;;;;;5026643;28;19933;-64
2021/08/06 10:02:17;;;;;;;;;;;;;;;;;;5026303;28;19929;-65
2021/08/06 10:04:43;;;;;;;;;;;;;;;;;;5024423;28;19926;-63
2021/08/06 10:07:10;;;;;;;;;;;;;;;;;;5025312;28;19937;-65
2021/08/06 10:09:37;;;;;;;;;;;;;;;;;;5024652;28;19925;-64
2021/08/06 10:12:04;;;;;;;;;;;;;;;;;;5025589;28;20431;-64
2021/08/06 10:14:31;;;;;;;;;;;;;;;;;;5024196;28;19925;-65
2021/08/06 10:16:58;;;;;;;;;;;;;;;;;;5026477;28;20358;-66
2021/08/06 10:19:25;;;;;;;;;;;;;;;;;;5027053;28;19925;-65
2021/08/06 10:21:52;;;;;;;;;;;;;;;;;;5023442;28;19935;-64
2021/08/06 10:24:19;;;;;;;;;;;;;;;;;;5026002;28;19926;-65
2021/08/06 10:26:46;;;;;;;;;;;;;;;;;;5024975;28;19933;-64
2021/08/06 10:29:13;;;;;;;;;;;;;;;;;;5026443;28;19940;-66
2021/08/06 10:31:42;;;;;;;;;;;;;;;;;;5024191;28;19933;-65
2021/08/06 10:34:09;;;;;;;;;;;;;;;;;;5023178;28;20300;-66
2021/08/06 10:36:36;;;;;;;;;;;;;;;;;;5026256;28;19932;-66
2021/08/06 10:39:03;;;;;;;;;;;;;;;;;;5023851;28;20400;-66
2021/08/06 10:41:30;;;;;;;;;;;;;;;;;;5026570;28;19925;-66
2021/08/06 10:43:57;;;;;;;;;;;;;;;;;;5025953;28;19929;-66
2021/08/06 10:46:24;;;;;;;;;;;;;;;;;;5024363;28;19940;-65
2021/08/06 10:48:51;;;;;;;;;;;;;;;;;;5025831;28;19944;-65
2021/08/06 10:51:18;;;;;;;;;;;;;;;;;;5024634;28;19936;-65
2021/08/06 10:53:45;;;;;;;;;;;;;;;;;;5025374;28;19925;-64
2021/08/06 10:56:12;;;;;;;;;;;;;;;;;;5023629;28;19925;-65
2021/08/06 10:58:39;;;;;;;;;;;;;;;;;;5027929;28;20208;-66
2021/08/06 11:01:06;;;;;;;;;;;;;;;;;;5028647;28;19925;-65
2021/08/06 11:03:33;;;;;;;;;;;;;;;;;;5029263;28;19935;-66
2021/08/06 11:06:00;;;;;;;;;;;;;;;;;;5028590;28;19925;-67
2021/08/06 11:08:27;;;;;;;;;;;;;;;;;;5028765;28;19932;-69
2021/08/06 11:10:54;;;;;;;;;;;;;;;;;;5030332;28;20413;-67
2021/08/06 11:13:21;;;;;;;;;;;;;;;;;;5026529;28;20304;-67
2021/08/06 11:15:48;;;;;;;;;;;;;;;;;;5025584;28;19929;-67
2021/08/06 11:18:14;;;;;;;;;;;;;;;;;;5029022;28;20286;-67
2021/08/06 11:20:41;;;;;;;;;;;;;;;;;;5027038;28;20368;-67
2021/08/06 11:23:11;;;;;;;;;;;;;;;;;;5030251;28;20333;-66
2021/08/06 11:25:38;;;;;;;;;;;;;;;;;;5027510;28;20405;-66
2021/08/06 11:28:05;;;;;;;;;;;;;;;;;;5028394;28;20480;-66
2021/08/06 11:30:34;;;;;;;;;;;;;;;;;;5027371;28;20341;-65
2021/08/06 11:33:01;;;;;;;;;;;;;;;;;;5028419;28;19931;-65
2021/08/06 11:35:30;;;;;;;;;;;;;;;;;;5027911;28;20297;-65
2021/08/06 11:37:57;;;;;;;;;;;;;;;;;;5025567;28;20021;-65
2021/08/06 11:40:24;;;;;;;;;;;;;;;;;;5028966;28;19929;-65
2021/08/06 11:42:51;;;;;;;;;;;;;;;;;;5023880;28;19931;-65
2021/08/06 11:45:18;;;;;;;;;;;;;;;;;;5025925;28;20016;-66
2021/08/06 11:47:47;;;;;;;;;;;;;;;;;;5029460;28;20011;-66
2021/08/06 11:50:14;;;;;;;;;;;;;;;;;;5028004;28;19929;-67
2021/08/06 11:52:41;;;;;;;;;;;;;;;;;;5028924;28;20043;-66
2021/08/06 11:55:08;;;;;;;;;;;;;;;;;;5028997;28;19983;-66
2021/08/06 11:57:35;;;;;;;;;;;;;;;;;;5025922;28;19928;-66
2021/08/06 12:00:02;;;;;;;;;;;;;;;;;;5028475;28;19933;-67
2021/08/06 12:02:30;;;;;;;;;;;;;;;;;;5024700;28;19968;-67
2021/08/06 12:04:59;;;;;;;;;;;;;;;;;;5029635;28;19925;-67
2021/08/06 12:07:26;;;;;;;;;;;;;;;;;;5025821;28;19925;-68
2021/08/06 12:09:57;;;;;;;;;;;;;;;;;;5030741;28;19929;-67
2021/08/06 12:12:24;;;;;;;;;;;;;;;;;;5024281;28;20311;-67
2021/08/06 12:14:53;;;;;;;;;;;;;;;;;;5028896;28;19948;-68
2021/08/06 12:17:20;;;;;;;;;;;;;;;;;;5023900;28;19929;-67
2021/08/06 12:19:47;;;;;;;;;;;;;;;;;;5026291;28;19948;-67
2021/08/06 12:22:15;;;;;;;;;;;;;;;;;;5027372;28;19936;-67
2021/08/06 12:24:42;;;;;;;;;;;;;;;;;;5030194;28;20408;-67
2021/08/06 12:27:09;;;;;;;;;;;;;;;;;;5028544;28;20381;-67
2021/08/06 12:29:39;;;;;;;;;;;;;;;;;;5029831;28;19925;-65
2021/08/06 12:32:06;;;;;;;;;;;;;;;;;;5029394;28;19932;-66
2021/08/06 12:34:33;;;;;;;;;;;;;;;;;;5031493;28;19932;-67
2021/08/06 12:37:00;;;;;;;;;;;;;;;;;;5025017;28;19956;-65
2021/08/06 12:39:27;;;;;;;;;;;;;;;;;;5030445;28;19925;-66
2021/08/06 12:41:54;;;;;;;;;;;;;;;;;;5029979;28;19929;-66
2021/08/06 12:44:21;;;;;;;;;;;;;;;;;;5032687;28;19967;-66
2021/08/06 12:46:48;;;;;;;;;;;;;;;;;;5029429;28;19925;-68
2021/08/06 12:49:15;;;;;;;;;;;;;;;;;;5032681;28;19925;-65
2021/08/06 12:51:42;;;;;;;;;;;;;;;;;;5032822;28;19926;-67
2021/08/06 12:54:09;;;;;;;;;;;;;;;;;;5030917;28;19930;-67
2021/08/06 12:56:36;;;;;;;;;;;;;;;;;;5029419;28;19972;-66
2021/08/06 12:59:03;;;;;;;;;;;;;;;;;;5027082;28;20088;-66
2021/08/06 13:01:30;;;;;;;;;;;;;;;;;;5027382;28;20288;-66
2021/08/06 13:03:57;;;;;;;;;;;;;;;;;;5028143;28;20401;-66
2021/08/06 13:06:24;;;;;;;;;;;;;;;;;;5023229;28;20388;-66
2021/08/06 13:08:52;;;;;;;;;;;;;;;;;;5031682;28;19932;-66
2021/08/06 13:11:19;;;;;;;;;;;;;;;;;;5022767;28;19960;-64
2021/08/06 13:13:46;;;;;;;;;;;;;;;;;;5033464;28;19932;-65
2021/08/06 13:16:13;;;;;;;;;;;;;;;;;;5029106;28;20168;-65
2021/08/06 13:18:40;;;;;;;;;;;;;;;;;;5030907;28;19983;-64
2021/08/06 13:21:07;;;;;;;;;;;;;;;;;;5023973;28;19932;-64
2021/08/06 13:23:33;;;;;;;;;;;;;;;;;;5027899;28;19929;-64
2021/08/06 13:26:00;;;;;;;;;;;;;;;;;;5029921;28;20020;-65
2021/08/06 13:28:28;;;;;;;;;;;;;;;;;;5029636;28;19925;-65
2021/08/06 13:30:55;;;;;;;;;;;;;;;;;;5029927;28;19929;-66
2021/08/06 13:33:22;;;;;;;;;;;;;;;;;;5030092;28;19931;-67
2021/08/06 13:35:51;;;;;;;;;;;;;;;;;;5024962;28;20553;-65
2021/08/06 13:38:18;;;;;;;;;;;;;;;;;;5029342;28;19961;-66
2021/08/06 13:40:45;;;;;;;;;;;;;;;;;;5030704;28;19931;-67
2021/08/06 13:43:12;;;;;;;;;;;;;;;;;;5025796;28;19987;-67
2021/08/06 13:45:39;;;;;;;;;;;;;;;;;;5026003;28;20005;-66
2021/08/06 13:48:06;;;;;;;;;;;;;;;;;;5029730;28;19973;-65
2021/08/06 13:50:35;;;;;;;;;;;;;;;;;;5025512;28;20132;-67
2021/08/06 13:53:02;;;;;;;;;;;;;;;;;;5024936;28;19925;-66
2021/08/06 13:55:29;;;;;;;;;;;;;;;;;;5028572;28;19925;-66
2021/08/06 13:57:56;;;;;;;;;;;;;;;;;;5027098;28;20415;-66
2021/08/06 14:00:23;;;;;;;;;;;;;;;;;;5025370;28;19945;-66
2021/08/06 14:02:50;;;;;;;;;;;;;;;;;;5026664;28;19925;-65
2021/08/06 14:05:17;;;;;;;;;;;;;;;;;;5026821;28;19937;-65
2021/08/06 14:07:44;;;;;;;;;;;;;;;;;;5023165;28;19925;-67
2021/08/06 14:10:11;;;;;;;;;;;;;;;;;;5020810;28;20012;-66
2021/08/06 14:12:38;;;;;;;;;;;;;;;;;;5023308;28;19926;-65
2021/08/06 14:15:04;;;;;;;;;;;;;;;;;;5030420;28;19936;-66
2021/08/06 14:17:31;;;;;;;;;;;;;;;;;;5028083;28;19932;-66
2021/08/06 14:19:58;;;;;;;;;;;;;;;;;;5025925;28;19925;-66
2021/08/06 14:22:25;;;;;;;;;;;;;;;;;;5028312;28;19925;-65
2021/08/06 14:24:52;;;;;;;;;;;;;;;;;;5029018;28;19925;-65
2021/08/06 14:27:19;;;;;;;;;;;;;;;;;;5025309;28;20688;-65
2021/08/06 14:29:46;;;;;;;;;;;;;;;;;;5026901;28;20271;-66
2021/08/06 14:32:13;;;;;;;;;;;;;;;;;;5024179;28;19929;-65
2021/08/06 14:34:40;;;;;;;;;;;;;;;;;;5027140;28;19925;-65
2021/08/06 14:37:07;;;;;;;;;;;;;;;;;;5026809;28;19925;-64
2021/08/06 14:39:37;;;;;;;;;;;;;;;;;;5025874;28;19925;-64
2021/08/06 14:42:04;;;;;;;;;;;;;;;;;;5028311;28;19929;-66
2021/08/06 14:44:31;;;;;;;;;;;;;;;;;;5021675;28;20382;-65
2021/08/06 14:46:58;;;;;;;;;;;;;;;;;;5027614;28;19979;-65
2021/08/06 14:49:25;;;;;;;;;;;;;;;;;;5024468;28;20336;-65
2021/08/06 14:51:52;;;;;;;;;;;;;;;;;;5025186;28;19925;-66
2021/08/06 14:54:19;;;;;;;;;;;;;;;;;;5023779;28;19925;-66
2021/08/06 14:56:46;;;;;;;;;;;;;;;;;;5025331;28;19925;-65
2021/08/06 14:59:13;;;;;;;;;;;;;;;;;;5022481;28;19933;-67
2021/08/06 15:01:41;;;;;;;;;;;;;;;;;;5023452;28;19925;-65
2021/08/06 15:04:08;;;;;;;;;;;;;;;;;;5024309;28;19925;-67
2021/08/06 15:06:35;;;;;;;;;;;;;;;;;;5024719;28;19936;-66
2021/08/06 15:09:02;;;;;;;;;;;;;;;;;;5022426;28;19926;-67
2021/08/06 15:11:30;;;;;;;;;;;;;;;;;;5024395;28;19925;-67
2021/08/06 15:13:57;;;;;;;;;;;;;;;;;;5021734;28;20016;-69
2021/08/06 15:16:24;;;;;;;;;;;;;;;;;;5022402;28;19933;-67
2021/08/06 15:18:51;;;;;;;;;;;;;;;;;;5019154;28;19936;-68
2021/08/06 15:21:18;;;;;;;;;;;;;;;;;;5023796;28;20020;-67
2021/08/06 15:23:45;;;;;;;;;;;;;;;;;;5025467;28;19929;-65
2021/08/06 15:26:12;;;;;;;;;;;;;;;;;;5020908;28;19932;-65
2021/08/06 15:28:39;;;;;;;;;;;;;;;;;;5023611;28;19933;-65
2021/08/06 15:31:07;;;;;;;;;;;;;;;;;;5021050;28;20015;-65
2021/08/06 15:33:33;;;;;;;;;;;;;;;;;;5023865;28;19939;-66
2021/08/06 15:36:00;;;;;;;;;;;;;;;;;;5024160;28;19925;-65
2021/08/06 15:38:27;;;;;;;;;;;;;;;;;;5021894;28;20401;-65
2021/08/06 15:40:54;;;;;;;;;;;;;;;;;;5044038;23;19932;-67
2021/08/06 15:43:21;;;;;;;;;;;;;;;;;;5040554;28;19929;-68
2021/08/06 15:45:48;;;;;;;;;;;;;;;;;;5046435;28;19931;-67
2021/08/06 15:48:15;;;;;;;;;;;;;;;;;;5046633;28;20016;-67
2021/08/06 15:50:42;;;;;;;;;;;;;;;;;;5046133;28;20027;-67
2021/08/06 15:53:09;;;;;;;;;;;;;;;;;;5045164;28;19924;-67
2021/08/06 15:55:36;;;;;;;;;;;;;;;;;;5042384;28;19929;-68
2021/08/06 15:58:03;;;;;;;;;;;;;;;;;;5044516;28;19929;-67
2021/08/06 16:00:30;;;;;;;;;;;;;;;;;;5040500;28;20015;-67
2021/08/06 16:02:57;;;;;;;;;;;;;;;;;;5044061;28;19932;-66
2021/08/06 16:05:24;;;;;;;;;;;;;;;;;;5043821;28;20027;-67
2021/08/06 16:07:51;;;;;;;;;;;;;;;;;;5045126;28;20361;-67
2021/08/06 16:10:18;;;;;;;;;;;;;;;;;;5043345;28;19924;-66
2021/08/06 16:12:45;;;;;;;;;;;;;;;;;;5041139;28;19933;-67
2021/08/06 16:15:12;;;;;;;;;;;;;;;;;;5048107;28;19933;-67
2021/08/06 16:17:39;;;;;;;;;;;;;;;;;;5043550;28;19931;-67
2021/08/06 16:20:07;;;;;;;;;;;;;;;;;;5040102;28;19929;-69
2021/08/06 16:22:34;;;;;;;;;;;;;;;;;;5045384;28;19929;-69
2021/08/06 16:25:01;;;;;;;;;;;;;;;;;;5039415;28;21331;-70
2021/08/06 16:27:28;;;;;;;;;;;;;;;;;;5041177;28;20011;-70
2021/08/06 16:29:55;;;;;;;;;;;;;;;;;;5042719;28;20307;-72
2021/08/06 16:32:22;;;;;;;;;;;;;;;;;;5043381;28;19960;-69
2021/08/06 16:34:49;;;;;;;;;;;;;;;;;;5047441;28;19925;-71
2021/08/06 16:37:16;;;;;;;;;;;;;;;;;;5041419;28;19963;-72
2021/08/06 16:39:43;;;;;;;;;;;;;;;;;;5044968;28;19933;-70
2021/08/06 16:42:10;;;;;;;;;;;;;;;;;;5042317;28;20015;-71
2021/08/06 16:44:37;;;;;;;;;;;;;;;;;;5042579;28;19929;-70
2021/08/06 16:47:04;;;;;;;;;;;;;;;;;;5044740;28;19935;-71